Time;durP1;ratioP1;P1;durP2;ratioP2;P2;SDS_P1;SDS_P2;PMS_P1;PMS_P2;Temp;Humidity;BMP_temperature;BMP_pressure;BME280_temperature;BME280_humidity;BME280_pressure;Samples;Min_cycle;Max_cycle;Signal;HPM_P1;HPM_P2
2023/06/11 00:02:12;;;;;;;;;;;;;;;;;;5050084;28;20041;-77
2023/06/11 00:04:37;;;;;;;;;;;;;;;;;;5033791;28;20294;-76
2023/06/11 00:07:05;;;;;;;;;;;;;;;;;;5051558;28;20337;-75
2023/06/11 00:09:30;;;;;;;;;;;;;;;;;;5050661;28;19913;-75
2023/06/11 00:11:55;;;;;;;;;;;;;;;;;;5067140;28;20275;-76
2023/06/11 00:14:21;;;;;;;;;;;;;;;;;;5051765;28;19912;-75
2023/06/11 00:16:47;;;;;;;;;;;;;;;;;;5042327;28;19916;-76
2023/06/11 00:19:12;;;;;;;;;;;;;;;;;;5067461;28;19968;-75
2023/06/11 00:21:40;;;;;;;;;;;;;;;;;;5054911;28;19916;-75
2023/06/11 00:24:06;;;;;;;;;;;;;;;;;;5055837;28;20265;-76
2023/06/11 00:26:33;;;;;;;;;;;;;;;;;;5055799;28;19909;-75
2023/06/11 00:28:58;;;;;;;;;;;;;;;;;;5055391;28;19913;-76
2023/06/11 00:31:23;;;;;;;;;;;;;;;;;;5055713;28;19915;-77
2023/06/11 00:33:49;;;;;;;;;;;;;;;;;;5054136;28;19963;-75
2023/06/11 00:36:14;;;;;;;;;;;;;;;;;;5055949;28;19933;-76
2023/06/11 00:38:40;;;;;;;;;;;;;;;;;;5055074;28;19922;-75
2023/06/11 00:41:06;;;;;;;;;;;;;;;;;;5054473;28;19959;-75
2023/06/11 00:43:31;;;;;;;;;;;;;;;;;;5052355;28;19952;-75
2023/06/11 00:45:56;;;;;;;;;;;;;;;;;;5055669;28;19908;-75
2023/06/11 00:48:22;;;;;;;;;;;;;;;;;;5054798;28;20364;-75
2023/06/11 00:50:48;;;;;;;;;;;;;;;;;;5062099;28;19908;-75
2023/06/11 00:53:13;;;;;;;;;;;;;;;;;;5055051;28;19923;-75
2023/06/11 00:55:39;;;;;;;;;;;;;;;;;;5055182;28;19915;-75
2023/06/11 00:58:04;;;;;;;;;;;;;;;;;;5055561;28;19927;-75
2023/06/11 01:00:30;;;;;;;;;;;;;;;;;;5055814;28;20298;-75
2023/06/11 01:02:57;;;;;;;;;;;;;;;;;;5054954;28;19912;-75
2023/06/11 01:05:22;;;;;;;;;;;;;;;;;;5053446;28;19912;-75
2023/06/11 01:07:51;;;;;;;;;;;;;;;;;;5047920;28;20439;-75
2023/06/11 01:10:20;;;;;;;;;;;;;;;;;;5070129;28;19908;-75
2023/06/11 01:12:46;;;;;;;;;;;;;;;;;;5070265;28;19962;-75
2023/06/11 01:15:13;;;;;;;;;;;;;;;;;;5070300;28;20299;-78
2023/06/11 01:17:40;;;;;;;;;;;;;;;;;;5053263;28;20384;-75
2023/06/11 01:20:08;;;;;;;;;;;;;;;;;;5070314;28;19920;-75
2023/06/11 01:22:33;;;;;;;;;;;;;;;;;;5054408;28;19957;-75
2023/06/11 01:25:00;;;;;;;;;;;;;;;;;;5070548;28;20011;-75
2023/06/11 01:27:27;;;;;;;;;;;;;;;;;;5069867;28;19920;-75
2023/06/11 01:29:52;;;;;;;;;;;;;;;;;;5054228;28;19908;-75
2023/06/11 01:32:17;;;;;;;;;;;;;;;;;;5052190;28;20395;-74
2023/06/11 01:34:43;;;;;;;;;;;;;;;;;;5070184;28;19909;-75
2023/06/11 01:37:14;;;;;;;;;;;;;;;;;;5069496;28;19919;-74
2023/06/11 01:39:45;;;;;;;;;;;;;;;;;;5069743;28;19986;-78
2023/06/11 01:42:35;;;;;;;;;;;;;;;;;;5058508;28;20003;-77
2023/06/11 01:45:01;;;;;;;;;;;;;;;;;;5069472;28;20361;-77
2023/06/11 01:47:27;;;;;;;;;;;;;;;;;;5054191;28;20025;-78
2023/06/11 01:49:53;;;;;;;;;;;;;;;;;;5052136;28;19913;-74
2023/06/11 01:52:18;;;;;;;;;;;;;;;;;;5053893;28;19916;-78
2023/06/11 01:54:44;;;;;;;;;;;;;;;;;;5053545;28;19917;-75
2023/06/11 01:57:10;;;;;;;;;;;;;;;;;;5048134;28;19908;-75
2023/06/11 01:59:35;;;;;;;;;;;;;;;;;;5057515;28;19920;-75
2023/06/11 02:02:01;;;;;;;;;;;;;;;;;;5057701;28;19908;-75
2023/06/11 02:04:26;;;;;;;;;;;;;;;;;;5069195;28;19999;-75
2023/06/11 02:06:52;;;;;;;;;;;;;;;;;;5065156;28;19915;-76
2023/06/11 02:09:17;;;;;;;;;;;;;;;;;;5046626;28;20303;-76
2023/06/11 02:11:42;;;;;;;;;;;;;;;;;;5051735;28;19908;-76
2023/06/11 02:14:08;;;;;;;;;;;;;;;;;;5052349;28;19913;-76
2023/06/11 02:16:33;;;;;;;;;;;;;;;;;;5069015;28;19908;-76
2023/06/11 02:18:58;;;;;;;;;;;;;;;;;;5053620;28;20350;-77
2023/06/11 02:21:23;;;;;;;;;;;;;;;;;;5067208;28;19908;-77
2023/06/11 02:23:49;;;;;;;;;;;;;;;;;;5053512;28;19922;-76
2023/06/11 02:26:14;;;;;;;;;;;;;;;;;;5061459;28;19962;-76
2023/06/11 02:28:40;;;;;;;;;;;;;;;;;;5051694;28;19920;-77
2023/06/11 02:31:05;;;;;;;;;;;;;;;;;;5061730;28;19909;-76
2023/06/11 02:33:55;;;;;;;;;;;;;;;;;;5053516;28;20291;-76
2023/06/11 02:36:21;;;;;;;;;;;;;;;;;;5053173;28;19913;-76
2023/06/11 02:38:46;;;;;;;;;;;;;;;;;;5051274;28;19912;-76
2023/06/11 02:41:11;;;;;;;;;;;;;;;;;;5068519;28;19908;-76
2023/06/11 02:43:37;;;;;;;;;;;;;;;;;;5054282;28;19913;-74
2023/06/11 02:46:02;;;;;;;;;;;;;;;;;;5056224;28;20008;-75
2023/06/11 02:48:27;;;;;;;;;;;;;;;;;;5051502;28;19912;-75
2023/06/11 02:50:53;;;;;;;;;;;;;;;;;;5068544;28;19908;-75
2023/06/11 02:53:18;;;;;;;;;;;;;;;;;;5065375;28;19913;-75
2023/06/11 02:55:43;;;;;;;;;;;;;;;;;;5068523;28;19915;-75
2023/06/11 02:58:09;;;;;;;;;;;;;;;;;;5035001;28;19948;-75
2023/06/11 03:00:34;;;;;;;;;;;;;;;;;;5068569;28;19912;-75
2023/06/11 03:02:59;;;;;;;;;;;;;;;;;;5067960;28;20372;-75
2023/06/11 03:05:30;;;;;;;;;;;;;;;;;;5035552;28;20335;-75
2023/06/11 03:07:56;;;;;;;;;;;;;;;;;;5053875;28;19967;-76
2023/06/11 03:10:21;;;;;;;;;;;;;;;;;;5035141;28;20384;-75
2023/06/11 03:12:47;;;;;;;;;;;;;;;;;;5067505;28;19919;-75
2023/06/11 03:15:12;;;;;;;;;;;;;;;;;;5068390;28;19932;-76
2023/06/11 03:17:38;;;;;;;;;;;;;;;;;;5067802;28;20326;-76
2023/06/11 03:20:03;;;;;;;;;;;;;;;;;;5053064;28;19919;-76
2023/06/11 03:22:28;;;;;;;;;;;;;;;;;;5052420;28;19966;-76
2023/06/11 03:24:54;;;;;;;;;;;;;;;;;;5051371;28;19948;-75
2023/06/11 03:27:32;;;;;;;;;;;;;;;;;;5039165;28;20305;-75
2023/06/11 03:29:57;;;;;;;;;;;;;;;;;;5057328;28;19913;-75
2023/06/11 03:32:23;;;;;;;;;;;;;;;;;;5049156;28;19916;-76
2023/06/11 03:34:51;;;;;;;;;;;;;;;;;;5051295;28;19912;-76
2023/06/11 03:37:17;;;;;;;;;;;;;;;;;;5047619;28;20474;-75
2023/06/11 03:39:43;;;;;;;;;;;;;;;;;;5042919;28;19951;-77
2023/06/11 03:42:08;;;;;;;;;;;;;;;;;;5049473;28;19909;-76
2023/06/11 03:44:34;;;;;;;;;;;;;;;;;;5067798;28;19917;-76
2023/06/11 03:46:59;;;;;;;;;;;;;;;;;;5053057;28;19909;-76
2023/06/11 03:49:24;;;;;;;;;;;;;;;;;;5068192;28;19967;-76
2023/06/11 03:51:50;;;;;;;;;;;;;;;;;;5067410;28;20243;-77
2023/06/11 03:54:15;;;;;;;;;;;;;;;;;;5052339;28;19913;-76
2023/06/11 03:56:40;;;;;;;;;;;;;;;;;;5055146;28;19909;-76
2023/06/11 03:59:08;;;;;;;;;;;;;;;;;;5055051;28;19912;-76
2023/06/11 04:01:33;;;;;;;;;;;;;;;;;;5055960;28;19908;-76
2023/06/11 04:03:58;;;;;;;;;;;;;;;;;;5055616;28;19960;-76
2023/06/11 04:06:24;;;;;;;;;;;;;;;;;;5071357;28;20276;-76
2023/06/11 04:08:49;;;;;;;;;;;;;;;;;;5038762;28;19919;-76
2023/06/11 04:11:15;;;;;;;;;;;;;;;;;;5054772;28;19958;-76
2023/06/11 04:13:40;;;;;;;;;;;;;;;;;;5054835;28;20283;-76
2023/06/11 04:16:05;;;;;;;;;;;;;;;;;;5055533;28;19955;-76
2023/06/11 04:18:31;;;;;;;;;;;;;;;;;;5054757;28;20299;-77
2023/06/11 04:20:56;;;;;;;;;;;;;;;;;;5054801;28;19916;-76
2023/06/11 04:23:21;;;;;;;;;;;;;;;;;;5058498;28;19920;-76
2023/06/11 04:25:48;;;;;;;;;;;;;;;;;;5051551;28;19912;-76
2023/06/11 04:28:15;;;;;;;;;;;;;;;;;;5071130;28;19913;-76
2023/06/11 04:30:41;;;;;;;;;;;;;;;;;;5071021;28;20390;-76
2023/06/11 04:33:07;;;;;;;;;;;;;;;;;;5054609;28;19962;-76
2023/06/11 04:35:34;;;;;;;;;;;;;;;;;;5054011;28;20317;-76
2023/06/11 04:38:02;;;;;;;;;;;;;;;;;;5060429;28;19951;-76
2023/06/11 04:40:28;;;;;;;;;;;;;;;;;;5053467;28;19909;-76
2023/06/11 04:42:54;;;;;;;;;;;;;;;;;;5054400;28;19919;-76
2023/06/11 04:45:20;;;;;;;;;;;;;;;;;;5065173;28;20019;-76
2023/06/11 04:47:46;;;;;;;;;;;;;;;;;;5053988;28;19913;-77
2023/06/11 04:50:11;;;;;;;;;;;;;;;;;;5069643;28;19909;-76
2023/06/11 04:52:42;;;;;;;;;;;;;;;;;;5037424;28;19913;-75
2023/06/11 04:55:09;;;;;;;;;;;;;;;;;;5051425;28;20388;-76
2023/06/11 04:57:36;;;;;;;;;;;;;;;;;;5054078;28;20372;-75
2023/06/11 05:00:04;;;;;;;;;;;;;;;;;;5037348;28;19917;-76
2023/06/11 05:02:32;;;;;;;;;;;;;;;;;;5053930;28;19909;-76
2023/06/11 05:04:58;;;;;;;;;;;;;;;;;;5053110;28;19938;-76
2023/06/11 05:07:24;;;;;;;;;;;;;;;;;;5036777;28;20368;-76
2023/06/11 05:09:49;;;;;;;;;;;;;;;;;;5036986;28;19912;-76
2023/06/11 05:12:16;;;;;;;;;;;;;;;;;;5053701;28;19908;-76
2023/06/11 05:14:41;;;;;;;;;;;;;;;;;;5053429;28;19931;-76
2023/06/11 05:17:07;;;;;;;;;;;;;;;;;;5053449;28;20425;-75
2023/06/11 05:19:32;;;;;;;;;;;;;;;;;;5053339;28;19960;-76
2023/06/11 05:21:58;;;;;;;;;;;;;;;;;;5053517;28;19958;-76
2023/06/11 05:24:29;;;;;;;;;;;;;;;;;;5053027;28;19920;-75
2023/06/11 05:26:58;;;;;;;;;;;;;;;;;;5053292;28;19923;-76
2023/06/11 05:29:27;;;;;;;;;;;;;;;;;;5065583;28;20295;-76
2023/06/11 05:31:56;;;;;;;;;;;;;;;;;;5047835;28;19908;-76
2023/06/11 05:34:22;;;;;;;;;;;;;;;;;;5070084;28;20363;-76
2023/06/11 05:36:48;;;;;;;;;;;;;;;;;;5069660;28;19995;-76
2023/06/11 05:39:14;;;;;;;;;;;;;;;;;;5057535;28;20460;-76
2023/06/11 05:41:39;;;;;;;;;;;;;;;;;;5069680;28;19908;-76
2023/06/11 05:44:06;;;;;;;;;;;;;;;;;;5036275;28;20298;-76
2023/06/11 05:46:31;;;;;;;;;;;;;;;;;;5035922;28;19916;-76
2023/06/11 05:48:57;;;;;;;;;;;;;;;;;;5069445;28;20399;-77
2023/06/11 05:51:24;;;;;;;;;;;;;;;;;;5036334;28;19915;-76
2023/06/11 05:53:50;;;;;;;;;;;;;;;;;;5052671;28;19912;-76
2023/06/11 05:56:16;;;;;;;;;;;;;;;;;;5052956;28;19908;-77
2023/06/11 05:58:41;;;;;;;;;;;;;;;;;;5069315;28;20334;-77
2023/06/11 06:01:08;;;;;;;;;;;;;;;;;;5069065;28;19916;-76
2023/06/11 06:03:37;;;;;;;;;;;;;;;;;;5052820;28;19917;-77
2023/06/11 06:06:02;;;;;;;;;;;;;;;;;;5061487;28;19912;-76
2023/06/11 06:08:27;;;;;;;;;;;;;;;;;;5069353;28;19916;-76
2023/06/11 06:10:53;;;;;;;;;;;;;;;;;;5069010;28;19909;-77
2023/06/11 06:13:18;;;;;;;;;;;;;;;;;;5052580;28;19962;-77
2023/06/11 06:15:44;;;;;;;;;;;;;;;;;;5052107;28;19913;-77
2023/06/11 06:18:10;;;;;;;;;;;;;;;;;;5068463;28;19924;-76
2023/06/11 06:20:38;;;;;;;;;;;;;;;;;;5035630;28;19916;-76
2023/06/11 06:23:04;;;;;;;;;;;;;;;;;;5060916;28;19912;-77
2023/06/11 06:25:33;;;;;;;;;;;;;;;;;;5052238;28;20261;-76
2023/06/11 06:27:59;;;;;;;;;;;;;;;;;;5068861;28;19919;-76
2023/06/11 06:30:24;;;;;;;;;;;;;;;;;;5051999;28;20007;-76
2023/06/11 06:32:50;;;;;;;;;;;;;;;;;;5063588;28;20461;-75
2023/06/11 06:35:15;;;;;;;;;;;;;;;;;;5051828;28;19901;-76
2023/06/11 06:37:42;;;;;;;;;;;;;;;;;;5052981;28;19952;-76
2023/06/11 06:40:08;;;;;;;;;;;;;;;;;;5068459;28;20280;-76
2023/06/11 06:42:33;;;;;;;;;;;;;;;;;;5051962;28;19919;-76
2023/06/11 06:45:01;;;;;;;;;;;;;;;;;;5052825;28;19913;-76
2023/06/11 06:47:26;;;;;;;;;;;;;;;;;;5068203;28;19919;-76
2023/06/11 06:49:52;;;;;;;;;;;;;;;;;;5053628;28;19955;-76
2023/06/11 06:52:17;;;;;;;;;;;;;;;;;;5053150;28;19913;-76
2023/06/11 06:54:43;;;;;;;;;;;;;;;;;;5052779;28;19908;-76
2023/06/11 06:57:09;;;;;;;;;;;;;;;;;;5068044;28;20003;-76
2023/06/11 06:59:34;;;;;;;;;;;;;;;;;;5052866;28;19916;-77
2023/06/11 07:02:00;;;;;;;;;;;;;;;;;;5050891;28;19912;-77
2023/06/11 07:04:26;;;;;;;;;;;;;;;;;;5040284;28;19912;-77
2023/06/11 07:06:51;;;;;;;;;;;;;;;;;;5072395;28;19912;-76
2023/06/11 07:09:18;;;;;;;;;;;;;;;;;;5051104;28;19909;-76
2023/06/11 07:11:46;;;;;;;;;;;;;;;;;;5068293;28;20070;-76
2023/06/11 07:14:12;;;;;;;;;;;;;;;;;;5050933;28;19916;-77
2023/06/11 07:16:37;;;;;;;;;;;;;;;;;;5052757;28;20598;-76
2023/06/11 07:19:03;;;;;;;;;;;;;;;;;;5034385;28;19932;-76
2023/06/11 07:21:29;;;;;;;;;;;;;;;;;;5051879;28;19978;-76
2023/06/11 07:23:55;;;;;;;;;;;;;;;;;;5050850;28;19919;-76
2023/06/11 07:26:21;;;;;;;;;;;;;;;;;;5038058;28;20614;-76
2023/06/11 07:28:46;;;;;;;;;;;;;;;;;;5051572;28;19915;-76
2023/06/11 07:31:12;;;;;;;;;;;;;;;;;;5067801;28;19912;-76
2023/06/11 07:33:41;;;;;;;;;;;;;;;;;;5067664;28;19916;-76
2023/06/11 07:36:06;;;;;;;;;;;;;;;;;;5037972;28;20284;-77
2023/06/11 07:38:32;;;;;;;;;;;;;;;;;;5059789;28;19916;-76
2023/06/11 07:40:57;;;;;;;;;;;;;;;;;;5050714;28;19912;-77
2023/06/11 07:43:23;;;;;;;;;;;;;;;;;;5047298;28;20053;-77
2023/06/11 07:45:49;;;;;;;;;;;;;;;;;;5044375;28;20102;-77
2023/06/11 07:48:15;;;;;;;;;;;;;;;;;;5049774;28;19912;-76
2023/06/11 07:50:41;;;;;;;;;;;;;;;;;;5051728;28;20352;-76
2023/06/11 07:53:08;;;;;;;;;;;;;;;;;;5068192;28;19970;-77
2023/06/11 07:55:34;;;;;;;;;;;;;;;;;;5051580;28;19920;-77
2023/06/11 07:57:59;;;;;;;;;;;;;;;;;;5057128;28;20287;-76
2023/06/11 08:00:25;;;;;;;;;;;;;;;;;;5051171;28;19917;-77
2023/06/11 08:02:50;;;;;;;;;;;;;;;;;;5051979;28;19919;-77
2023/06/11 08:05:18;;;;;;;;;;;;;;;;;;5050945;28;19917;-77
2023/06/11 08:07:44;;;;;;;;;;;;;;;;;;5049395;28;20330;-76
2023/06/11 08:10:09;;;;;;;;;;;;;;;;;;5052002;28;19913;-78
2023/06/11 08:12:35;;;;;;;;;;;;;;;;;;5052164;28;19909;-77
2023/06/11 08:15:00;;;;;;;;;;;;;;;;;;5052341;28;19913;-78
2023/06/11 08:17:25;;;;;;;;;;;;;;;;;;5051988;28;19920;-78
2023/06/11 08:19:51;;;;;;;;;;;;;;;;;;5052337;28;19928;-79
2023/06/11 08:22:16;;;;;;;;;;;;;;;;;;5050766;28;20375;-79
2023/06/11 08:24:41;;;;;;;;;;;;;;;;;;5051844;28;19924;-78
2023/06/11 08:27:08;;;;;;;;;;;;;;;;;;5050626;28;19916;-77
2023/06/11 08:29:34;;;;;;;;;;;;;;;;;;5051918;28;19912;-78
2023/06/11 08:31:59;;;;;;;;;;;;;;;;;;5050789;28;19915;-78
2023/06/11 08:34:24;;;;;;;;;;;;;;;;;;5052087;28;20281;-78
2023/06/11 08:36:50;;;;;;;;;;;;;;;;;;5050720;28;19909;-78
2023/06/11 08:39:16;;;;;;;;;;;;;;;;;;5051850;28;20458;-78
2023/06/11 08:41:41;;;;;;;;;;;;;;;;;;5055894;28;19999;-78
2023/06/11 08:44:06;;;;;;;;;;;;;;;;;;5055669;28;20015;-78
2023/06/11 08:46:31;;;;;;;;;;;;;;;;;;5055793;28;19943;-77
2023/06/11 08:48:58;;;;;;;;;;;;;;;;;;5071162;28;19963;-78
2023/06/11 08:51:23;;;;;;;;;;;;;;;;;;5055252;28;19909;-78
2023/06/11 08:53:49;;;;;;;;;;;;;;;;;;5070861;28;19919;-78
2023/06/11 08:56:14;;;;;;;;;;;;;;;;;;5053845;28;19909;-78
2023/06/11 08:58:40;;;;;;;;;;;;;;;;;;5055249;28;20054;-77
2023/06/11 09:01:05;;;;;;;;;;;;;;;;;;5054728;28;19935;-78
2023/06/11 09:03:31;;;;;;;;;;;;;;;;;;5070238;28;19912;-79
2023/06/11 09:05:56;;;;;;;;;;;;;;;;;;5055017;28;19913;-78
2023/06/11 09:08:22;;;;;;;;;;;;;;;;;;5055194;28;19920;-78
2023/06/11 09:10:47;;;;;;;;;;;;;;;;;;5055469;28;19908;-78
2023/06/11 09:13:12;;;;;;;;;;;;;;;;;;5054849;28;19912;-78
2023/06/11 09:15:37;;;;;;;;;;;;;;;;;;5053917;28;20031;-78
2023/06/11 09:18:03;;;;;;;;;;;;;;;;;;5054186;28;19968;-78
2023/06/11 09:20:28;;;;;;;;;;;;;;;;;;5054946;28;19932;-79
2023/06/11 09:22:54;;;;;;;;;;;;;;;;;;5054506;28;19913;-78
2023/06/11 09:25:20;;;;;;;;;;;;;;;;;;5049850;28;19919;-79
2023/06/11 09:27:45;;;;;;;;;;;;;;;;;;5048681;28;20303;-79
2023/06/11 09:30:10;;;;;;;;;;;;;;;;;;5036806;28;19909;-79
2023/06/11 09:32:36;;;;;;;;;;;;;;;;;;5038819;28;19913;-79
2023/06/11 09:35:02;;;;;;;;;;;;;;;;;;5040749;28;19958;-78
2023/06/11 09:37:27;;;;;;;;;;;;;;;;;;5042050;28;19935;-78
2023/06/11 09:39:52;;;;;;;;;;;;;;;;;;5054151;28;20371;-77
2023/06/11 09:42:20;;;;;;;;;;;;;;;;;;5054382;28;19919;-77
2023/06/11 09:44:45;;;;;;;;;;;;;;;;;;5055497;28;19943;-79
2023/06/11 09:47:10;;;;;;;;;;;;;;;;;;5055108;28;19913;-79
2023/06/11 09:49:36;;;;;;;;;;;;;;;;;;5055186;28;19909;-80
2023/06/11 09:52:01;;;;;;;;;;;;;;;;;;5056882;28;19917;-79
2023/06/11 09:54:26;;;;;;;;;;;;;;;;;;5054793;28;19908;-81
2023/06/11 09:56:52;;;;;;;;;;;;;;;;;;5058330;28;20462;-81
2023/06/11 09:59:17;;;;;;;;;;;;;;;;;;5054838;28;20303;-80
2023/06/11 10:01:46;;;;;;;;;;;;;;;;;;5048115;28;19913;-80
2023/06/11 10:04:12;;;;;;;;;;;;;;;;;;5044013;28;19919;-81
2023/06/11 10:06:37;;;;;;;;;;;;;;;;;;5052083;28;19916;-81
2023/06/11 10:09:03;;;;;;;;;;;;;;;;;;5054068;28;20133;-81
2023/06/11 10:11:29;;;;;;;;;;;;;;;;;;5069012;28;19919;-82
2023/06/11 10:13:54;;;;;;;;;;;;;;;;;;5053676;28;20012;-81
2023/06/11 10:16:19;;;;;;;;;;;;;;;;;;5053640;28;19912;-81
2023/06/11 10:18:45;;;;;;;;;;;;;;;;;;5053175;28;19928;-80
2023/06/11 10:21:10;;;;;;;;;;;;;;;;;;5053172;28;19913;-79
2023/06/11 10:23:38;;;;;;;;;;;;;;;;;;5053163;28;19908;-80
2023/06/11 10:26:04;;;;;;;;;;;;;;;;;;5054291;28;19916;-80
2023/06/11 10:28:29;;;;;;;;;;;;;;;;;;5053312;28;20429;-80
2023/06/11 10:30:55;;;;;;;;;;;;;;;;;;5053236;28;20431;-80
2023/06/11 10:33:21;;;;;;;;;;;;;;;;;;5053179;28;19909;-80
2023/06/11 10:35:46;;;;;;;;;;;;;;;;;;5052676;28;19936;-80
2023/06/11 10:38:13;;;;;;;;;;;;;;;;;;5053409;28;19923;-80
2023/06/11 10:40:38;;;;;;;;;;;;;;;;;;5065323;28;19913;-80
2023/06/11 10:43:04;;;;;;;;;;;;;;;;;;5052488;28;19916;-81
2023/06/11 10:45:29;;;;;;;;;;;;;;;;;;5052103;28;19964;-79
2023/06/11 10:47:55;;;;;;;;;;;;;;;;;;5052972;28;19951;-80
2023/06/11 10:50:21;;;;;;;;;;;;;;;;;;5052924;28;20413;-81
2023/06/11 10:52:46;;;;;;;;;;;;;;;;;;5053074;28;19955;-81
2023/06/11 10:55:13;;;;;;;;;;;;;;;;;;5052583;28;19913;-80
2023/06/11 10:57:38;;;;;;;;;;;;;;;;;;5052869;28;19909;-81
2023/06/11 11:00:07;;;;;;;;;;;;;;;;;;5052939;28;19912;-79
2023/06/11 11:02:32;;;;;;;;;;;;;;;;;;5052692;28;20268;-80
2023/06/11 11:04:57;;;;;;;;;;;;;;;;;;5052091;28;19924;-80
2023/06/11 11:07:24;;;;;;;;;;;;;;;;;;5052899;28;19908;-80
2023/06/11 11:09:49;;;;;;;;;;;;;;;;;;5052268;28;19912;-80
2023/06/11 11:12:15;;;;;;;;;;;;;;;;;;5052711;28;19909;-80
2023/06/11 11:14:40;;;;;;;;;;;;;;;;;;5050903;28;20339;-81
2023/06/11 11:17:06;;;;;;;;;;;;;;;;;;5052856;28;19915;-80
2023/06/11 11:19:32;;;;;;;;;;;;;;;;;;5052176;28;19970;-79
2023/06/11 11:21:57;;;;;;;;;;;;;;;;;;5052076;28;19929;-80
2023/06/11 11:24:23;;;;;;;;;;;;;;;;;;5052011;28;19923;-80
2023/06/11 11:26:48;;;;;;;;;;;;;;;;;;5052237;28;20299;-80
2023/06/11 11:29:14;;;;;;;;;;;;;;;;;;5051845;28;19913;-80
2023/06/11 11:31:39;;;;;;;;;;;;;;;;;;5050957;28;19909;-79
2023/06/11 11:34:04;;;;;;;;;;;;;;;;;;5051574;28;20466;-80
2023/06/11 11:36:31;;;;;;;;;;;;;;;;;;5052585;28;19916;-79
2023/06/11 11:38:56;;;;;;;;;;;;;;;;;;5051951;28;20291;-80
2023/06/11 11:41:24;;;;;;;;;;;;;;;;;;5052583;28;19915;-80
2023/06/11 11:43:50;;;;;;;;;;;;;;;;;;5050468;28;19920;-80
2023/06/11 11:46:16;;;;;;;;;;;;;;;;;;5051935;28;19913;-80
2023/06/11 11:48:44;;;;;;;;;;;;;;;;;;5050196;28;20272;-80
2023/06/11 11:51:11;;;;;;;;;;;;;;;;;;5050746;28;19955;-80
2023/06/11 11:53:37;;;;;;;;;;;;;;;;;;5034072;28;19912;-80
2023/06/11 11:56:02;;;;;;;;;;;;;;;;;;5051111;28;19924;-80
2023/06/11 11:58:27;;;;;;;;;;;;;;;;;;5051372;28;19956;-80
2023/06/11 12:00:53;;;;;;;;;;;;;;;;;;5050226;28;20331;-80
2023/06/11 12:03:18;;;;;;;;;;;;;;;;;;5051480;28;19913;-80
2023/06/11 12:05:44;;;;;;;;;;;;;;;;;;5051295;28;19955;-80
2023/06/11 12:08:09;;;;;;;;;;;;;;;;;;5067100;28;19917;-80
2023/06/11 12:10:34;;;;;;;;;;;;;;;;;;5050812;28;19967;-80
2023/06/11 12:13:00;;;;;;;;;;;;;;;;;;5052015;28;20111;-80
2023/06/11 12:15:25;;;;;;;;;;;;;;;;;;5049863;28;19909;-79
2023/06/11 12:17:51;;;;;;;;;;;;;;;;;;5054336;28;19925;-79
2023/06/11 12:20:17;;;;;;;;;;;;;;;;;;5056178;28;19919;-80
2023/06/11 12:22:42;;;;;;;;;;;;;;;;;;5054254;28;20302;-80
2023/06/11 12:25:07;;;;;;;;;;;;;;;;;;5054754;28;19919;-80
2023/06/11 12:27:33;;;;;;;;;;;;;;;;;;5055753;28;19919;-80
2023/06/11 12:29:58;;;;;;;;;;;;;;;;;;5041662;28;19944;-80
2023/06/11 12:32:27;;;;;;;;;;;;;;;;;;5070894;28;19955;-80
2023/06/11 12:34:53;;;;;;;;;;;;;;;;;;5055810;28;19931;-80
2023/06/11 12:37:18;;;;;;;;;;;;;;;;;;5055218;28;19912;-80
2023/06/11 12:39:43;;;;;;;;;;;;;;;;;;5055438;28;19908;-80
2023/06/11 12:42:10;;;;;;;;;;;;;;;;;;5054811;28;19913;-80
2023/06/11 12:44:35;;;;;;;;;;;;;;;;;;5055372;28;19924;-80
2023/06/11 12:47:00;;;;;;;;;;;;;;;;;;5054900;28;19913;-80
2023/06/11 12:49:28;;;;;;;;;;;;;;;;;;5054193;28;19908;-80
2023/06/11 12:51:53;;;;;;;;;;;;;;;;;;5055608;28;19917;-80
2023/06/11 12:54:23;;;;;;;;;;;;;;;;;;5053498;28;20000;-80
2023/06/11 12:56:48;;;;;;;;;;;;;;;;;;5053707;28;19958;-81
2023/06/11 12:59:15;;;;;;;;;;;;;;;;;;5055913;28;20344;-79
2023/06/11 13:01:40;;;;;;;;;;;;;;;;;;5062442;28;19920;-79
2023/06/11 13:04:05;;;;;;;;;;;;;;;;;;5054453;28;19909;-79
2023/06/11 13:06:31;;;;;;;;;;;;;;;;;;5054428;28;19912;-79
2023/06/11 13:08:56;;;;;;;;;;;;;;;;;;5031641;28;20402;-80
2023/06/11 13:11:21;;;;;;;;;;;;;;;;;;5054309;28;19912;-81
2023/06/11 13:13:47;;;;;;;;;;;;;;;;;;5054501;28;19952;-79
2023/06/11 13:16:13;;;;;;;;;;;;;;;;;;5054270;28;19913;-80
2023/06/11 13:18:39;;;;;;;;;;;;;;;;;;5055495;28;20425;-80
2023/06/11 13:21:05;;;;;;;;;;;;;;;;;;5052645;28;20008;-80
2023/06/11 13:23:31;;;;;;;;;;;;;;;;;;5054555;28;20022;-80
2023/06/11 13:25:56;;;;;;;;;;;;;;;;;;5054554;28;19916;-80
2023/06/11 13:28:21;;;;;;;;;;;;;;;;;;5053793;28;19912;-81
2023/06/11 13:30:47;;;;;;;;;;;;;;;;;;5054000;28;20299;-81
2023/06/11 13:33:12;;;;;;;;;;;;;;;;;;5056032;28;19908;-79
2023/06/11 13:35:37;;;;;;;;;;;;;;;;;;5053949;28;19917;-80
2023/06/11 13:38:04;;;;;;;;;;;;;;;;;;5070210;28;19957;-80
2023/06/11 13:40:30;;;;;;;;;;;;;;;;;;5053871;28;19912;-80
2023/06/11 13:42:55;;;;;;;;;;;;;;;;;;5054144;28;19908;-80
2023/06/11 13:45:21;;;;;;;;;;;;;;;;;;5052608;28;19916;-80
2023/06/11 13:47:47;;;;;;;;;;;;;;;;;;5054240;28;19954;-80
2023/06/11 13:50:12;;;;;;;;;;;;;;;;;;5053828;28;19920;-80
2023/06/11 13:52:37;;;;;;;;;;;;;;;;;;5053664;28;19908;-80
2023/06/11 13:55:03;;;;;;;;;;;;;;;;;;5052531;28;19962;-80
2023/06/11 13:57:31;;;;;;;;;;;;;;;;;;5053372;28;19908;-80
2023/06/11 13:59:56;;;;;;;;;;;;;;;;;;5053565;28;19978;-80
2023/06/11 14:02:21;;;;;;;;;;;;;;;;;;5053387;28;19909;-80
2023/06/11 14:04:50;;;;;;;;;;;;;;;;;;5053500;28;19921;-80
2023/06/11 14:07:15;;;;;;;;;;;;;;;;;;5053387;28;20012;-80
2023/06/11 14:09:40;;;;;;;;;;;;;;;;;;5051800;28;19948;-80
2023/06/11 14:12:06;;;;;;;;;;;;;;;;;;5053511;28;19913;-79
2023/06/11 14:14:31;;;;;;;;;;;;;;;;;;5051435;28;19952;-79
2023/06/11 14:16:58;;;;;;;;;;;;;;;;;;5053482;28;19955;-80
2023/06/11 14:19:24;;;;;;;;;;;;;;;;;;5052843;28;19924;-80
2023/06/11 14:21:49;;;;;;;;;;;;;;;;;;5068596;28;19916;-80
2023/06/11 14:24:14;;;;;;;;;;;;;;;;;;5052362;28;19916;-80
2023/06/11 14:26:40;;;;;;;;;;;;;;;;;;5053887;28;20378;-80
2023/06/11 14:29:05;;;;;;;;;;;;;;;;;;5062225;28;19920;-80
2023/06/11 14:31:30;;;;;;;;;;;;;;;;;;5053154;28;19908;-80
2023/06/11 14:33:56;;;;;;;;;;;;;;;;;;5052799;28;19916;-80
2023/06/11 14:36:21;;;;;;;;;;;;;;;;;;5052688;28;19909;-80
2023/06/11 14:38:47;;;;;;;;;;;;;;;;;;5051033;28;19920;-80
2023/06/11 14:41:12;;;;;;;;;;;;;;;;;;5067970;28;19909;-80
2023/06/11 14:43:37;;;;;;;;;;;;;;;;;;5052334;28;19912;-80
2023/06/11 14:46:02;;;;;;;;;;;;;;;;;;5034762;28;19948;-80
2023/06/11 14:48:28;;;;;;;;;;;;;;;;;;5052382;28;20348;-80
2023/06/11 14:50:53;;;;;;;;;;;;;;;;;;5053408;28;20410;-80
2023/06/11 14:53:18;;;;;;;;;;;;;;;;;;5052836;28;19952;-80
2023/06/11 14:55:44;;;;;;;;;;;;;;;;;;5052767;28;19915;-80
2023/06/11 14:58:09;;;;;;;;;;;;;;;;;;5050433;28;19999;-80
2023/06/11 15:00:34;;;;;;;;;;;;;;;;;;5052387;28;19912;-80
2023/06/11 15:03:00;;;;;;;;;;;;;;;;;;5051044;28;19913;-80
2023/06/11 15:05:25;;;;;;;;;;;;;;;;;;5050995;28;20004;-80
2023/06/11 15:07:50;;;;;;;;;;;;;;;;;;5050704;28;19920;-80
2023/06/11 15:10:16;;;;;;;;;;;;;;;;;;5052426;28;19909;-80
2023/06/11 15:12:41;;;;;;;;;;;;;;;;;;5051764;28;20428;-80
2023/06/11 15:15:06;;;;;;;;;;;;;;;;;;5052144;28;20007;-80
2023/06/11 15:17:35;;;;;;;;;;;;;;;;;;5050585;28;19943;-80
2023/06/11 15:20:00;;;;;;;;;;;;;;;;;;5067574;28;20331;-80
2023/06/11 15:22:26;;;;;;;;;;;;;;;;;;5050839;28;19970;-80
2023/06/11 15:24:51;;;;;;;;;;;;;;;;;;5051690;28;19913;-78
2023/06/11 15:27:17;;;;;;;;;;;;;;;;;;5051647;28;20367;-78
2023/06/11 15:29:42;;;;;;;;;;;;;;;;;;5041796;28;19916;-79
2023/06/11 15:32:07;;;;;;;;;;;;;;;;;;5051680;28;19991;-79
2023/06/11 15:34:33;;;;;;;;;;;;;;;;;;5062082;28;20272;-79
2023/06/11 15:36:58;;;;;;;;;;;;;;;;;;5053262;28;19958;-79
2023/06/11 15:39:23;;;;;;;;;;;;;;;;;;5053941;28;19943;-79
2023/06/11 15:41:48;;;;;;;;;;;;;;;;;;5051617;28;19935;-80
2023/06/11 15:44:14;;;;;;;;;;;;;;;;;;5059623;28;20004;-80
2023/06/11 15:46:39;;;;;;;;;;;;;;;;;;5061227;28;20007;-81
2023/06/11 15:49:05;;;;;;;;;;;;;;;;;;5032021;28;19920;-80
2023/06/11 15:51:30;;;;;;;;;;;;;;;;;;5047225;28;19913;-80
2023/06/11 15:53:55;;;;;;;;;;;;;;;;;;5051157;28;19909;-80
2023/06/11 15:56:21;;;;;;;;;;;;;;;;;;5052250;28;19913;-80
2023/06/11 15:58:46;;;;;;;;;;;;;;;;;;5052717;28;19967;-80
2023/06/11 16:01:11;;;;;;;;;;;;;;;;;;5051818;28;20031;-80
2023/06/11 16:03:37;;;;;;;;;;;;;;;;;;5052772;28;19909;-79
2023/06/11 16:06:02;;;;;;;;;;;;;;;;;;5052657;28;20003;-80
2023/06/11 16:08:27;;;;;;;;;;;;;;;;;;5051794;28;20395;-80
2023/06/11 16:10:53;;;;;;;;;;;;;;;;;;5052392;28;19912;-80
2023/06/11 16:13:18;;;;;;;;;;;;;;;;;;5047121;28;19913;-80
2023/06/11 16:15:45;;;;;;;;;;;;;;;;;;5046097;28;19912;-80
2023/06/11 16:18:10;;;;;;;;;;;;;;;;;;5051039;28;19970;-80
2023/06/11 16:20:36;;;;;;;;;;;;;;;;;;5048305;28;19917;-80
2023/06/11 16:23:02;;;;;;;;;;;;;;;;;;5066842;28;20359;-80
2023/06/11 16:25:27;;;;;;;;;;;;;;;;;;5069526;28;19917;-80
2023/06/11 16:27:53;;;;;;;;;;;;;;;;;;5049234;28;19920;-80
2023/06/11 16:30:18;;;;;;;;;;;;;;;;;;5054884;28;19992;-80
2023/06/11 16:32:44;;;;;;;;;;;;;;;;;;5043533;28;20275;-79
2023/06/11 16:35:09;;;;;;;;;;;;;;;;;;5052262;28;19919;-80
2023/06/11 16:37:35;;;;;;;;;;;;;;;;;;5046405;28;19919;-80